Time;durP1;ratioP1;P1;durP2;ratioP2;P2;SDS_P1;SDS_P2;PMS_P1;PMS_P2;Temp;Humidity;BMP_temperature;BMP_pressure;BME280_temperature;BME280_humidity;BME280_pressure;Samples;Min_cycle;Max_cycle;Signal;HPM_P1;HPM_P2
2023/06/09 00:01:17;;;;;;;0.10;0.10;;;16.70;71.20;;;;;;6219091;23;20019;-79
2023/06/09 00:03:45;;;;;;;0.20;0.20;;;16.70;71.30;;;;;;6246389;23;20059;-80
2023/06/09 00:06:12;;;;;;;0.20;0.15;;;16.60;71.40;;;;;;6194296;23;20447;-80
2023/06/09 00:08:39;;;;;;;0.08;0.08;;;16.60;71.70;;;;;;6194711;23;20016;-78
2023/06/09 00:11:06;;;;;;;0.40;0.20;;;16.50;71.20;;;;;;6219232;23;20008;-79
2023/06/09 00:13:31;;;;;;;;;;;16.50;71.90;;;;;;6220253;23;20008;-79
2023/06/09 00:15:58;;;;;;;0.22;0.22;;;16.50;71.60;;;;;;6218910;23;19931;-80
2023/06/09 00:18:25;;;;;;;2.95;0.52;;;16.50;71.70;;;;;;6194351;23;20070;-78
2023/06/09 00:20:52;;;;;;;0.40;0.38;;;16.50;71.80;;;;;;6218751;23;20074;-79
2023/06/09 00:23:19;;;;;;;0.85;0.85;;;16.50;71.80;;;;;;6219509;23;20015;-78
2023/06/09 00:25:45;;;;;;;0.45;0.25;;;16.50;71.90;;;;;;6193998;23;20323;-79
2023/06/09 00:28:11;;;;;;;4.97;1.13;;;16.40;72.10;;;;;;6246745;23;20008;-79
2023/06/09 00:30:37;;;;;;;0.13;0.13;;;16.40;72.00;;;;;;6245734;23;20004;-79
2023/06/09 00:33:03;;;;;;;0.70;0.50;;;16.40;71.90;;;;;;6194003;23;20019;-79
2023/06/09 00:35:30;;;;;;;0.13;0.13;;;16.40;71.70;;;;;;6193708;23;20016;-79
2023/06/09 00:37:56;;;;;;;0.60;0.40;;;16.40;71.80;;;;;;6246424;23;20381;-80
2023/06/09 00:40:22;;;;;;;0.20;0.20;;;16.40;71.90;;;;;;6218936;23;20098;-78
2023/06/09 00:42:49;;;;;;;0.65;0.30;;;16.40;71.90;;;;;;6246508;23;20012;-79
2023/06/09 00:45:15;;;;;;;;;;;16.30;72.00;;;;;;6194308;23;20013;-79
2023/06/09 00:47:41;;;;;;;0.30;0.20;;;16.40;71.90;;;;;;6193996;23;19912;-79
2023/06/09 00:50:08;;;;;;;0.20;0.20;;;16.30;72.00;;;;;;6218765;23;20053;-78
2023/06/09 00:52:34;;;;;;;0.20;0.20;;;16.30;71.90;;;;;;6218890;23;20394;-79
2023/06/09 00:55:01;;;;;;;1.05;0.95;;;16.30;72.80;;;;;;6194059;23;20020;-79
2023/06/09 00:57:29;;;;;;;0.45;0.38;;;16.40;72.00;;;;;;6218131;23;20012;-79
2023/06/09 00:59:56;;;;;;;1.60;0.50;;;16.30;71.80;;;;;;6219529;23;20013;-79
2023/06/09 01:02:23;;;;;;;0.30;0.30;;;16.30;72.00;;;;;;6193211;23;20458;-79
2023/06/09 01:04:50;;;;;;;0.38;0.30;;;16.30;72.40;;;;;;6219257;23;20008;-79
2023/06/09 01:07:54;;;;;;;0.20;0.20;;;16.20;72.50;;;;;;6218311;23;20022;-79
2023/06/09 01:10:43;;;;;;;0.32;0.30;;;16.30;72.30;;;;;;6218611;23;20504;-79
2023/06/09 01:13:35;;;;;;;0.73;0.60;;;16.30;72.10;;;;;;6219337;23;20024;-79
2023/06/09 01:16:09;;;;;;;0.20;0.20;;;16.30;72.00;;;;;;6218461;23;20016;-78
2023/06/09 01:18:36;;;;;;;0.20;0.20;;;16.30;72.10;;;;;;6218984;23;20012;-78
2023/06/09 01:24:32;;;;;;;1.55;0.95;;;16.10;72.50;;;;;;6223278;23;20022;-78
2023/06/09 01:27:18;;;;;;;0.25;0.25;;;16.10;72.60;;;;;;6244982;23;20016;-79
2023/06/09 01:29:45;;;;;;;0.80;0.60;;;16.00;72.40;;;;;;6193879;23;20019;-78
2023/06/09 01:32:14;;;;;;;0.32;0.32;;;16.00;72.40;;;;;;6218139;23;20035;-79
2023/06/09 01:34:43;;;;;;;0.50;0.28;;;16.00;72.20;;;;;;6219042;23;20012;-79
2023/06/09 01:37:10;;;;;;;0.13;0.13;;;16.00;72.30;;;;;;6193128;23;20378;-78
2023/06/09 01:39:37;;;;;;;0.85;0.50;;;16.10;72.30;;;;;;6218907;23;20012;-79
2023/06/09 01:42:05;;;;;;;0.30;0.30;;;16.00;72.30;;;;;;6218205;23;20012;-78
2023/06/09 01:44:33;;;;;;;0.30;0.25;;;16.00;72.20;;;;;;6245936;23;20011;-79
2023/06/09 01:46:59;;;;;;;2.40;0.30;;;16.10;71.80;;;;;;6217947;23;20040;-79
2023/06/09 01:49:37;;;;;;;0.10;0.10;;;16.00;72.40;;;;;;6218466;23;20083;-79
2023/06/09 01:52:31;;;;;;;0.35;0.35;;;16.10;72.40;;;;;;6192805;23;20008;-79
2023/06/09 01:55:20;;;;;;;0.63;0.50;;;16.00;72.50;;;;;;6245497;23;20015;-79
2023/06/09 01:58:10;;;;;;;0.40;0.38;;;16.10;72.70;;;;;;6218567;23;20004;-79
2023/06/09 02:00:37;;;;;;;1.48;1.25;;;16.10;72.70;;;;;;6192848;23;20365;-79
2023/06/09 02:03:07;;;;;;;0.57;0.47;;;16.10;72.70;;;;;;6218593;23;20087;-79
2023/06/09 02:05:35;;;;;;;4.68;1.00;;;16.10;72.70;;;;;;6193095;23;20055;-79
2023/06/09 02:08:01;;;;;;;1.95;0.77;;;16.00;73.10;;;;;;6245207;23;20067;-80
2023/06/09 02:10:30;;;;;;;0.98;0.40;;;15.90;73.20;;;;;;6217994;23;20012;-79
2023/06/09 02:12:56;;;;;;;0.30;0.30;;;15.90;73.10;;;;;;6218576;23;20020;-79
2023/06/09 02:15:22;;;;;;;0.50;0.50;;;16.00;73.10;;;;;;6192920;23;20368;-79
2023/06/09 02:17:48;;;;;;;1.02;0.43;;;16.00;73.10;;;;;;6193307;23;20008;-79
2023/06/09 02:20:14;;;;;;;;;;;16.00;73.20;;;;;;6193395;23;20020;-79
2023/06/09 02:22:40;;;;;;;2.20;0.88;;;16.00;73.10;;;;;;6218432;23;19938;-79
2023/06/09 02:25:07;;;;;;;0.93;0.50;;;16.00;73.10;;;;;;6218122;23;20091;-79
2023/06/09 02:27:33;;;;;;;0.75;0.65;;;16.00;73.00;;;;;;6194820;23;20488;-79
2023/06/09 02:30:00;;;;;;;0.20;0.20;;;16.00;73.30;;;;;;6220651;23;20050;-79
2023/06/09 02:32:26;;;;;;;0.22;0.13;;;15.90;73.70;;;;;;6246864;23;20445;-80
2023/06/09 02:34:52;;;;;;;0.77;0.57;;;15.90;73.40;;;;;;6220270;23;20016;-79
2023/06/09 02:37:21;;;;;;;0.35;0.30;;;15.90;73.30;;;;;;6194786;23;20035;-79
2023/06/09 02:39:47;;;;;;;0.77;0.52;;;15.90;73.30;;;;;;6247321;23;20004;-80
2023/06/09 02:42:13;;;;;;;0.35;0.32;;;15.90;73.40;;;;;;6220179;23;20023;-80
2023/06/09 02:44:39;;;;;;;0.10;0.10;;;15.90;73.30;;;;;;6220441;23;20055;-80
2023/06/09 02:47:05;;;;;;;0.13;0.13;;;15.90;73.10;;;;;;6219904;23;20023;-79
2023/06/09 02:49:32;;;;;;;0.45;0.30;;;15.90;72.50;;;;;;6194841;23;20017;-79
2023/06/09 02:51:58;;;;;;;0.68;0.57;;;15.80;72.40;;;;;;6219941;23;20012;-79
2023/06/09 02:54:24;;;;;;;1.90;1.00;;;15.90;73.10;;;;;;6220477;23;20012;-79
2023/06/09 02:56:51;;;;;;;;;;;15.90;73.10;;;;;;6220538;23;20038;-80
2023/06/09 02:59:17;;;;;;;0.10;0.10;;;15.80;73.00;;;;;;6195623;23;19915;-79
2023/06/09 03:01:44;;;;;;;0.88;0.63;;;15.80;72.90;;;;;;6219726;23;20004;-80
2023/06/09 03:04:11;;;;;;;1.08;0.73;;;15.70;73.00;;;;;;6220153;23;20066;-80
2023/06/09 03:06:39;;;;;;;0.85;0.73;;;15.70;73.10;;;;;;6246827;23;20036;-79
2023/06/09 03:09:06;;;;;;;0.20;0.20;;;15.60;73.10;;;;;;6220627;23;20043;-80
2023/06/09 03:11:32;;;;;;;0.82;0.30;;;15.70;73.30;;;;;;6194646;23;20035;-79
2023/06/09 03:13:58;;;;;;;0.40;0.35;;;15.60;73.10;;;;;;6220262;23;20016;-78
2023/06/09 03:16:24;;;;;;;0.45;0.20;;;15.60;73.20;;;;;;6194534;23;20012;-80
2023/06/09 03:18:50;;;;;;;0.20;0.20;;;15.60;73.30;;;;;;6195043;23;20016;-79
2023/06/09 03:21:16;;;;;;;0.20;0.15;;;15.70;73.20;;;;;;6219827;23;20035;-79
2023/06/09 03:23:42;;;;;;;0.75;0.63;;;15.70;73.20;;;;;;6220031;23;20020;-79
2023/06/09 03:26:09;;;;;;;0.10;0.10;;;15.70;73.00;;;;;;6219584;23;20012;-79
2023/06/09 03:28:34;;;;;;;;;;;15.80;72.90;;;;;;6220669;23;20433;-80
2023/06/09 03:31:01;;;;;;;1.30;0.73;;;15.80;72.90;;;;;;6194366;23;19937;-79
2023/06/09 03:33:27;;;;;;;0.30;0.30;;;15.80;72.90;;;;;;6194755;23;20147;-78
2023/06/09 03:35:53;;;;;;;0.52;0.30;;;15.80;72.90;;;;;;6219531;23;20008;-80
2023/06/09 03:38:19;;;;;;;;;;;15.90;73.10;;;;;;6195225;23;20378;-79
2023/06/09 03:40:45;;;;;;;0.30;0.30;;;15.90;73.20;;;;;;6219210;23;19954;-79
2023/06/09 03:45:58;;;;;;;1.67;1.00;;;15.90;73.20;;;;;;6123534;23;20088;-79
2023/06/09 03:48:24;;;;;;;0.40;0.40;;;16.00;73.10;;;;;;6099368;23;20455;-79
2023/06/09 03:50:50;;;;;;;;;;;16.10;73.30;;;;;;6099708;23;20022;-79
2023/06/09 03:53:16;;;;;;;0.57;0.30;;;16.00;73.20;;;;;;6075636;23;19932;-79
2023/06/09 03:55:42;;;;;;;0.65;0.65;;;16.00;72.90;;;;;;6098988;23;20021;-78
2023/06/09 03:58:10;;;;;;;0.70;0.35;;;16.00;73.00;;;;;;6099557;23;20025;-78
2023/06/09 04:00:36;;;;;;;1.13;0.85;;;16.10;73.10;;;;;;6098791;23;20018;-79
2023/06/09 04:03:03;;;;;;;0.22;0.22;;;16.10;73.10;;;;;;6099571;23;20360;-79
2023/06/09 04:05:29;;;;;;;;;;;16.20;72.90;;;;;;6099640;23;20104;-78
2023/06/09 04:07:55;;;;;;;0.60;0.30;;;16.20;73.00;;;;;;6099343;23;19952;-79
2023/06/09 04:10:21;;;;;;;0.98;0.50;;;16.20;72.80;;;;;;6098865;23;20018;-80
2023/06/09 04:12:47;;;;;;;0.70;0.47;;;16.30;72.80;;;;;;6099238;23;20097;-78
2023/06/09 04:15:13;;;;;;;0.55;0.52;;;16.30;72.70;;;;;;6098973;23;20017;-79
2023/06/09 04:17:41;;;;;;;1.45;0.57;;;16.30;73.00;;;;;;6123764;23;20013;-80
2023/06/09 04:20:08;;;;;;;0.40;0.22;;;16.40;73.10;;;;;;6099566;23;20006;-80
2023/06/09 04:22:34;;;;;;;2.58;0.68;;;16.40;72.90;;;;;;6135075;23;20016;-78
2023/06/09 04:25:01;;;;;;;0.65;0.47;;;16.40;73.10;;;;;;6194275;23;20012;-80
2023/06/09 04:27:29;;;;;;;0.63;0.50;;;16.40;73.10;;;;;;6219057;23;20012;-80
2023/06/09 04:29:55;;;;;;;1.33;0.75;;;16.50;72.30;;;;;;6194333;23;20008;-80
2023/06/09 04:32:21;;;;;;;0.43;0.30;;;16.50;71.90;;;;;;6245564;23;20087;-80
2023/06/09 04:34:52;;;;;;;1.27;0.43;;;16.60;72.50;;;;;;6194259;23;20004;-80
2023/06/09 04:37:19;;;;;;;0.63;0.35;;;16.70;72.50;;;;;;6194036;23;20039;-80
2023/06/09 04:39:47;;;;;;;0.20;0.20;;;16.70;72.20;;;;;;6219196;23;20008;-79
2023/06/09 04:42:14;;;;;;;1.08;0.90;;;16.80;71.90;;;;;;6246145;23;20385;-80
2023/06/09 04:44:40;;;;;;;0.70;0.57;;;16.90;71.90;;;;;;6219193;23;20020;-79
2023/06/09 04:47:07;;;;;;;1.05;0.52;;;16.90;71.80;;;;;;6218520;23;20045;-80
2023/06/09 04:49:35;;;;;;;0.20;0.20;;;17.00;71.80;;;;;;6193559;23;20096;-83
2023/06/09 04:52:02;;;;;;;0.22;0.20;;;17.10;71.90;;;;;;6218722;23;20397;-78
2023/06/09 04:54:28;;;;;;;0.40;0.28;;;17.10;72.00;;;;;;6219537;23;20028;-79
2023/06/09 04:56:58;;;;;;;0.40;0.40;;;17.10;72.00;;;;;;6193558;23;20389;-79
2023/06/09 04:59:25;;;;;;;0.20;0.20;;;17.20;71.90;;;;;;6219857;23;20497;-79
2023/06/09 05:01:52;;;;;;;0.28;0.28;;;17.20;72.10;;;;;;6218606;23;20008;-79
2023/06/09 05:04:19;;;;;;;0.25;0.22;;;17.30;72.30;;;;;;6245894;23;20008;-78
2023/06/09 05:06:45;;;;;;;0.90;0.43;;;17.40;72.30;;;;;;6218115;23;20008;-79
2023/06/09 05:09:11;;;;;;;0.20;0.20;;;17.40;72.30;;;;;;6219036;23;20009;-79
2023/06/09 05:11:37;;;;;;;0.45;0.30;;;17.50;72.10;;;;;;6218501;23;20437;-79
2023/06/09 05:16:49;;;;;;;0.47;0.35;;;17.60;71.40;;;;;;6222633;23;20511;-79
2023/06/09 05:19:15;;;;;;;;;;;17.70;71.80;;;;;;6219722;23;20012;-80
2023/06/09 05:21:45;;;;;;;0.20;0.20;;;17.70;71.90;;;;;;6193472;23;20025;-79
2023/06/09 05:24:11;;;;;;;0.43;0.40;;;17.80;71.80;;;;;;6194637;23;20434;-79
2023/06/09 05:26:38;;;;;;;0.28;0.28;;;17.90;71.80;;;;;;6245405;23;20039;-79
2023/06/09 05:29:03;;;;;;;;;;;18.00;71.20;;;;;;6219575;23;20008;-79
2023/06/09 05:31:31;;;;;;;1.13;0.50;;;18.00;72.20;;;;;;6218529;23;19973;-79
2023/06/09 05:33:57;;;;;;;0.68;0.47;;;18.10;72.60;;;;;;6219633;23;20346;-79
2023/06/09 05:36:23;;;;;;;0.10;0.10;;;18.20;72.30;;;;;;6218251;23;20008;-79
2023/06/09 05:38:50;;;;;;;0.20;0.20;;;18.20;72.00;;;;;;6218658;23;20466;-80
2023/06/09 05:41:16;;;;;;;0.30;0.30;;;18.40;71.80;;;;;;6193109;23;20016;-79
2023/06/09 05:43:42;;;;;;;0.40;0.20;;;18.50;71.90;;;;;;6218784;23;20008;-80
2023/06/09 05:46:08;;;;;;;0.88;0.73;;;18.60;71.70;;;;;;6218219;23;20016;-79
2023/06/09 05:48:34;;;;;;;0.22;0.22;;;18.70;71.60;;;;;;6245121;23;20038;-79
2023/06/09 05:51:00;;;;;;;0.90;0.52;;;18.80;71.30;;;;;;6193190;23;20009;-79
2023/06/09 05:53:27;;;;;;;1.10;0.55;;;18.90;71.40;;;;;;6245510;23;20008;-80
2023/06/09 05:55:54;;;;;;;0.75;0.63;;;19.00;71.20;;;;;;6193308;23;20020;-79
2023/06/09 05:58:20;;;;;;;1.00;0.47;;;19.10;71.00;;;;;;6218613;23;20043;-79
2023/06/09 06:00:46;;;;;;;;;;;19.20;70.40;;;;;;6218586;23;20019;-79
2023/06/09 06:03:12;;;;;;;0.35;0.30;;;19.30;70.10;;;;;;6217803;23;19916;-80
2023/06/09 06:05:38;;;;;;;;;;;19.40;70.00;;;;;;6193478;23;20009;-79
2023/06/09 06:08:06;;;;;;;0.77;0.30;;;19.60;70.10;;;;;;6193335;23;19912;-80
2023/06/09 06:10:32;;;;;;;1.30;0.77;;;19.70;69.50;;;;;;6218428;23;20015;-79
2023/06/09 06:13:01;;;;;;;;;;;19.80;69.20;;;;;;6218860;23;20012;-80
2023/06/09 06:15:27;;;;;;;4.45;0.85;;;19.90;69.50;;;;;;6218455;23;19911;-80
2023/06/09 06:17:53;;;;;;;1.25;0.60;;;20.00;68.90;;;;;;6245092;23;20060;-79
2023/06/09 06:20:19;;;;;;;;;;;20.10;68.80;;;;;;6218535;23;20013;-79
2023/06/09 06:22:46;;;;;;;0.55;0.35;;;20.30;69.10;;;;;;6218307;23;19939;-80
2023/06/09 06:25:13;;;;;;;1.02;0.60;;;20.40;68.30;;;;;;6192724;23;20013;-79
2023/06/09 06:27:40;;;;;;;0.28;0.20;;;20.50;68.10;;;;;;6193074;23;20341;-79
2023/06/09 06:30:08;;;;;;;0.63;0.40;;;20.60;67.40;;;;;;6192109;23;20405;-80
2023/06/09 06:32:54;;;;;;;0.65;0.50;;;20.80;67.10;;;;;;6218175;23;20062;-79
2023/06/09 06:35:40;;;;;;;0.70;0.43;;;21.00;66.70;;;;;;6217291;23;20438;-79
2023/06/09 06:38:06;;;;;;;0.20;0.20;;;21.30;66.00;;;;;;6193467;23;20385;-80
2023/06/09 06:40:32;;;;;;;;;;;21.50;65.60;;;;;;6218478;23;20008;-80
2023/06/09 06:42:58;;;;;;;0.10;0.10;;;21.80;64.90;;;;;;6218272;23;19958;-79
2023/06/09 06:45:26;;;;;;;;;;;22.10;64.40;;;;;;6245684;23;20319;-79
2023/06/09 06:47:53;;;;;;;0.40;0.25;;;22.30;64.30;;;;;;6244784;23;19918;-79
2023/06/09 06:50:20;;;;;;;0.52;0.52;;;22.50;62.10;;;;;;6217292;23;20445;-79
2023/06/09 06:55:33;;;;;;;2.88;1.75;;;22.90;61.20;;;;;;6222510;23;20441;-78
2023/06/09 06:57:58;;;;;;;;;;;23.30;60.80;;;;;;6193561;23;20357;-80
2023/06/09 07:00:24;;;;;;;1.40;0.63;;;23.40;60.50;;;;;;6192628;23;19965;-79
2023/06/09 07:02:50;;;;;;;;;;;23.60;59.80;;;;;;6245692;23;20083;-79
2023/06/09 07:05:17;;;;;;;1.33;0.95;;;23.70;60.30;;;;;;6217941;23;20234;-80
2023/06/09 07:07:43;;;;;;;4.38;2.70;;;23.70;59.60;;;;;;6192928;23;20022;-79
2023/06/09 07:10:10;;;;;;;;;;;23.70;58.70;;;;;;6245104;23;20039;-79
2023/06/09 07:12:36;;;;;;;0.93;0.60;;;23.80;59.90;;;;;;6218759;23;19907;-78
2023/06/09 07:15:05;;;;;;;4.63;1.05;;;23.90;59.00;;;;;;6219963;23;20058;-79
2023/06/09 07:17:31;;;;;;;1.25;0.70;;;24.00;58.40;;;;;;6219724;23;20058;-80
2023/06/09 07:19:57;;;;;;;1.08;0.63;;;24.00;58.30;;;;;;6246748;23;20020;-79
2023/06/09 07:22:23;;;;;;;1.33;0.65;;;24.10;57.70;;;;;;6246027;23;20036;-78
2023/06/09 07:24:49;;;;;;;0.68;0.45;;;24.20;57.70;;;;;;6246813;23;20019;-78
2023/06/09 07:27:15;;;;;;;0.35;0.30;;;24.30;57.40;;;;;;6194166;23;20018;-79
2023/06/09 07:29:42;;;;;;;0.30;0.28;;;24.30;57.10;;;;;;6219904;23;20048;-79
2023/06/09 07:32:31;;;;;;;0.63;0.55;;;24.30;57.40;;;;;;6219368;23;20388;-79
2023/06/09 07:34:57;;;;;;;0.20;0.20;;;24.20;56.50;;;;;;6219927;23;20146;-79
2023/06/09 07:37:25;;;;;;;0.38;0.38;;;24.20;56.70;;;;;;6219374;23;20211;-78
2023/06/09 07:39:51;;;;;;;0.77;0.52;;;24.20;56.80;;;;;;6219749;23;20020;-78
2023/06/09 07:42:17;;;;;;;0.80;0.57;;;24.40;56.70;;;;;;6219316;23;20019;-80
2023/06/09 07:44:43;;;;;;;0.45;0.45;;;24.50;56.30;;;;;;6194829;23;20091;-79
2023/06/09 07:47:10;;;;;;;0.85;0.47;;;24.60;56.00;;;;;;6219339;23;20391;-80
2023/06/09 07:49:36;;;;;;;1.17;0.60;;;24.70;56.00;;;;;;6219747;23;20012;-80
2023/06/09 07:52:04;;;;;;;0.47;0.40;;;24.70;55.70;;;;;;6194057;23;20095;-78
2023/06/09 07:54:30;;;;;;;1.27;1.05;;;24.70;55.20;;;;;;6219665;23;20020;-78
2023/06/09 07:56:56;;;;;;;0.73;0.40;;;24.70;55.20;;;;;;6193918;23;20020;-78
2023/06/09 07:59:22;;;;;;;;;;;24.70;55.40;;;;;;6247164;23;20341;-79
2023/06/09 08:01:48;;;;;;;0.93;0.63;;;24.70;55.40;;;;;;6245950;23;19936;-78
2023/06/09 08:04:14;;;;;;;;;;;24.60;54.60;;;;;;6220717;23;20039;-79
2023/06/09 08:06:41;;;;;;;0.53;0.40;;;24.60;55.30;;;;;;6245785;23;19915;-79
2023/06/09 08:09:09;;;;;;;1.05;0.63;;;24.70;54.20;;;;;;6219814;23;20016;-79
2023/06/09 08:11:35;;;;;;;0.30;0.30;;;24.70;54.20;;;;;;6245800;23;20452;-78
2023/06/09 08:14:11;;;;;;;;;;;;;;;;;;;;;
2023/06/09 08:17:08;;;;;;;1.13;0.95;;;24.60;53.40;;;;;;6234629;23;20096;-78
2023/06/09 08:19:36;;;;;;;0.63;0.60;;;24.70;54.20;;;;;;6194380;23;20020;-77
2023/06/09 08:22:02;;;;;;;0.90;0.73;;;24.80;54.00;;;;;;6194007;23;20012;-78
2023/06/09 08:24:28;;;;;;;0.52;0.38;;;24.90;54.20;;;;;;6193579;23;20004;-79
2023/06/09 08:26:56;;;;;;;0.22;0.20;;;24.90;53.50;;;;;;6193661;23;20039;-78
2023/06/09 08:29:22;;;;;;;1.23;0.50;;;24.90;53.60;;;;;;6194631;23;20429;-78
2023/06/09 08:31:48;;;;;;;1.38;0.70;;;24.90;54.30;;;;;;6218973;23;20005;-78
2023/06/09 08:34:14;;;;;;;;;;;24.90;53.60;;;;;;6194950;23;20024;-77
2023/06/09 08:36:41;;;;;;;0.90;0.55;;;24.90;53.10;;;;;;6218779;23;19986;-78
2023/06/09 08:39:09;;;;;;;0.32;0.32;;;25.00;53.40;;;;;;6219427;23;20012;-78
2023/06/09 08:41:38;;;;;;;2.20;0.95;;;25.10;53.30;;;;;;6193688;23;20023;-78
2023/06/09 08:44:05;;;;;;;0.70;0.50;;;25.20;53.00;;;;;;6194146;23;20100;-78
2023/06/09 08:46:51;;;;;;;0.75;0.63;;;25.20;53.00;;;;;;6218842;23;20008;-79
2023/06/09 08:49:18;;;;;;;1.02;0.90;;;25.20;52.70;;;;;;6218986;23;20009;-78
2023/06/09 08:51:45;;;;;;;1.10;1.00;;;25.20;52.40;;;;;;6218687;23;20088;-77
2023/06/09 08:54:15;;;;;;;1.65;0.82;;;25.30;52.10;;;;;;6194068;23;20484;-78
2023/06/09 08:56:42;;;;;;;0.40;0.30;;;25.30;52.10;;;;;;6219619;23;20008;-79
2023/06/09 08:59:09;;;;;;;1.27;0.82;;;25.40;52.70;;;;;;6193695;23;20016;-78
2023/06/09 09:01:36;;;;;;;1.45;0.52;;;25.40;51.60;;;;;;6218217;23;20008;-79
2023/06/09 09:04:02;;;;;;;0.47;0.20;;;25.40;51.90;;;;;;6245839;23;20058;-78
2023/06/09 09:06:28;;;;;;;0.30;0.30;;;25.60;51.50;;;;;;6218462;23;20373;-79
2023/06/09 09:08:54;;;;;;;1.45;1.17;;;25.70;51.30;;;;;;6193569;23;20008;-78
2023/06/09 09:11:21;;;;;;;0.73;0.55;;;25.70;51.50;;;;;;6193399;23;20022;-78
2023/06/09 09:14:24;;;;;;;0.43;0.38;;;25.60;51.50;;;;;;6193695;23;20017;-78
2023/06/09 09:16:50;;;;;;;0.30;0.30;;;25.60;50.70;;;;;;6218538;23;20020;-79
2023/06/09 09:19:39;;;;;;;3.30;1.20;;;25.70;50.60;;;;;;6192696;23;20012;-80
2023/06/09 09:22:08;;;;;;;1.33;0.88;;;26.00;50.70;;;;;;6218426;23;20434;-79
2023/06/09 09:24:35;;;;;;;0.68;0.50;;;26.20;49.30;;;;;;6193423;23;20026;-78
2023/06/09 09:27:33;;;;;;;0.38;0.25;;;26.40;49.20;;;;;;6218357;23;20034;-79
2023/06/09 09:29:59;;;;;;;;;;;26.70;48.70;;;;;;6246564;23;20012;-80
2023/06/09 09:32:26;;;;;;;0.70;0.68;;;27.00;47.90;;;;;;6193207;23;19986;-79
2023/06/09 09:34:52;;;;;;;0.52;0.35;;;27.40;46.20;;;;;;6193246;23;20013;-78
2023/06/09 09:37:18;;;;;;;2.80;0.75;;;28.00;46.20;;;;;;6193030;23;20020;-80
2023/06/09 09:40:04;;;;;;;0.52;0.47;;;28.50;44.30;;;;;;6245383;23;20019;-79
2023/06/09 09:42:31;;;;;;;0.52;0.30;;;29.20;43.40;;;;;;6193488;23;20024;-79
2023/06/09 09:44:57;;;;;;;1.17;0.55;;;29.90;41.70;;;;;;6218719;23;20078;-80
2023/06/09 09:47:23;;;;;;;0.50;0.45;;;30.50;40.40;;;;;;6217848;23;20023;-79
2023/06/09 09:50:10;;;;;;;1.23;0.90;;;31.20;38.80;;;;;;6218770;23;20429;-79
2023/06/09 09:52:36;;;;;;;;;;;32.00;38.00;;;;;;6219782;23;20422;-80
2023/06/09 09:55:08;;;;;;;1.13;0.73;;;32.80;37.40;;;;;;6245341;23;19915;-80
2023/06/09 09:57:35;;;;;;;0.30;0.30;;;33.40;35.80;;;;;;6245369;23;20481;-78
2023/06/09 10:00:20;;;;;;;0.32;0.30;;;34.20;35.20;;;;;;6245648;23;20008;-80
2023/06/09 10:02:53;;;;;;;1.05;0.77;;;34.80;33.70;;;;;;6218265;23;20077;-80
2023/06/09 10:05:21;;;;;;;0.52;0.40;;;35.40;32.50;;;;;;6217967;23;20470;-78
2023/06/09 10:07:54;;;;;;;0.30;0.30;;;35.80;31.10;;;;;;6193404;23;20012;-79
2023/06/09 10:10:21;;;;;;;0.35;0.35;;;36.30;29.80;;;;;;6193172;23;20381;-79
2023/06/09 10:12:49;;;;;;;0.65;0.60;;;36.80;29.00;;;;;;6245219;23;20074;-80
2023/06/09 10:15:16;;;;;;;1.02;0.93;;;37.40;28.00;;;;;;6193077;23;20074;-79
2023/06/09 10:17:44;;;;;;;2.92;1.20;;;37.80;26.60;;;;;;6218433;23;20437;-78
2023/06/09 10:20:10;;;;;;;0.85;0.65;;;38.40;27.10;;;;;;6217927;23;20094;-80
2023/06/09 10:22:36;;;;;;;0.80;0.60;;;38.90;26.60;;;;;;6193304;23;20020;-79
2023/06/09 10:25:04;;;;;;;0.38;0.38;;;39.60;26.30;;;;;;6218494;23;20009;-79
2023/06/09 10:27:42;;;;;;;1.20;0.95;;;40.20;25.30;;;;;;6218331;23;20016;-79
2023/06/09 10:30:09;;;;;;;1.45;0.63;;;40.80;24.10;;;;;;6218083;23;20011;-80
2023/06/09 10:32:53;;;;;;;2.53;0.90;;;41.30;23.50;;;;;;6193542;23;20103;-79
2023/06/09 10:35:41;;;;;;;0.70;0.70;;;41.60;22.90;;;;;;6192988;23;20019;-79
2023/06/09 10:38:47;;;;;;;0.52;0.50;;;41.00;23.70;;;;;;6193135;23;20468;-80
2023/06/09 10:41:38;;;;;;;1.45;1.02;;;40.50;22.80;;;;;;6218136;23;20125;-80
2023/06/09 10:44:42;;;;;;;0.50;0.50;;;40.20;23.80;;;;;;6218073;23;20016;-79
2023/06/09 10:47:09;;;;;;;0.43;0.43;;;41.10;22.70;;;;;;6193187;23;20012;-80
2023/06/09 10:52:41;;;;;;;1.02;0.82;;;42.90;21.80;;;;;;6223613;23;20349;-79
2023/06/09 10:55:15;;;;;;;0.50;0.50;;;43.60;21.40;;;;;;6247153;23;20008;-81
2023/06/09 10:57:42;;;;;;;0.50;0.50;;;43.80;20.30;;;;;;6220039;23;20083;-81
2023/06/09 11:00:13;;;;;;;1.10;1.00;;;44.20;20.40;;;;;;6219942;23;20047;-82
2023/06/09 11:03:16;;;;;;;0.93;0.68;;;44.10;19.20;;;;;;6195863;23;20016;-80
2023/06/09 11:05:58;;;;;;;1.20;1.10;;;43.80;19.60;;;;;;6219583;23;20031;-80
2023/06/09 11:08:25;;;;;;;1.08;0.88;;;44.40;19.50;;;;;;6220275;23;20023;-79
2023/06/09 11:10:51;;;;;;;1.02;0.95;;;45.20;19.60;;;;;;6219815;23;20015;-79
2023/06/09 11:13:58;;;;;;;1.05;0.95;;;45.80;18.10;;;;;;6220165;23;20008;-80
2023/06/09 11:16:24;;;;;;;0.90;0.90;;;46.20;18.50;;;;;;6219580;23;20434;-80
2023/06/09 11:19:29;;;;;;;0.70;0.70;;;46.70;17.90;;;;;;6220240;23;20019;-79
2023/06/09 11:22:13;;;;;;;0.82;0.80;;;47.20;17.90;;;;;;6219596;23;20031;-81
2023/06/09 11:24:58;;;;;;;1.27;1.17;;;47.80;17.10;;;;;;6220273;23;20024;-80
2023/06/09 11:27:24;;;;;;;2.08;1.88;;;48.50;16.50;;;;;;6219493;23;20337;-79
2023/06/09 11:30:20;;;;;;;1.20;1.10;;;48.70;15.40;;;;;;6219974;23;20012;-80
2023/06/09 11:33:00;;;;;;;1.48;1.30;;;48.90;15.50;;;;;;6246703;23;20012;-79
2023/06/09 11:38:23;;;;;;;1.30;1.20;;;49.80;16.20;;;;;;6246494;23;20421;-83
2023/06/09 11:40:52;;;;;;;1.45;1.35;;;49.70;15.80;;;;;;6220164;23;20039;-82
2023/06/09 11:43:20;;;;;;;1.35;1.17;;;48.80;15.70;;;;;;6220082;23;20008;-80
2023/06/09 11:45:47;;;;;;;2.00;1.55;;;48.70;16.40;;;;;;6219359;23;20019;-79
2023/06/09 11:48:14;;;;;;;1.17;1.08;;;48.10;16.50;;;;;;6219828;23;20416;-78
2023/06/09 11:50:44;;;;;;;1.63;1.35;;;48.20;16.50;;;;;;6219300;23;20098;-80
2023/06/09 11:53:30;;;;;;;0.95;0.95;;;48.40;16.60;;;;;;6194637;23;20092;-80
2023/06/09 11:56:15;;;;;;;1.30;1.20;;;47.00;17.00;;;;;;6245941;23;20087;-81
2023/06/09 11:58:42;;;;;;;0.90;0.90;;;47.70;16.40;;;;;;6219401;23;20040;-79
2023/06/09 12:01:09;;;;;;;1.00;1.00;;;48.40;15.50;;;;;;6246020;23;20107;-80
2023/06/09 12:03:36;;;;;;;1.20;1.10;;;47.50;15.60;;;;;;6194840;23;20014;-78
2023/06/09 12:06:03;;;;;;;1.23;1.13;;;48.00;16.00;;;;;;6246340;23;20066;-79
2023/06/09 12:08:29;;;;;;;1.00;0.90;;;47.80;15.80;;;;;;6219737;23;20079;-81
2023/06/09 12:10:55;;;;;;;0.75;0.75;;;46.00;17.30;;;;;;6219298;23;20012;-80
2023/06/09 12:13:21;;;;;;;1.38;1.27;;;44.30;18.60;;;;;;6219757;23;20016;-79
2023/06/09 12:16:06;;;;;;;1.17;0.90;;;42.80;19.60;;;;;;6194029;23;20066;-79
2023/06/09 12:18:32;;;;;;;1.13;0.90;;;41.20;21.00;;;;;;6219445;23;20016;-78
2023/06/09 12:21:00;;;;;;;1.10;1.00;;;40.00;22.50;;;;;;6219092;23;20035;-79
2023/06/09 12:23:58;;;;;;;1.02;0.82;;;39.10;23.70;;;;;;6219535;23;20023;-79
2023/06/09 12:26:25;;;;;;;1.17;0.75;;;37.90;23.70;;;;;;6194052;23;20083;-78
2023/06/09 12:29:10;;;;;;;1.15;1.02;;;37.20;25.40;;;;;;6219385;23;20035;-78
2023/06/09 12:31:55;;;;;;;0.70;0.70;;;36.30;25.90;;;;;;6219093;23;20453;-79
2023/06/09 12:34:45;;;;;;;0.80;0.75;;;35.60;27.10;;;;;;6219596;23;20015;-79
2023/06/09 12:37:11;;;;;;;0.90;0.70;;;34.90;28.10;;;;;;6219472;23;20036;-79
2023/06/09 12:39:37;;;;;;;1.25;1.05;;;34.20;29.90;;;;;;6194126;23;20453;-79
2023/06/09 12:42:22;;;;;;;1.08;0.70;;;33.10;33.20;;;;;;6219060;23;20083;-80
2023/06/09 12:44:49;;;;;;;1.45;0.75;;;31.60;35.30;;;;;;6194306;23;20333;-79
2023/06/09 12:47:16;;;;;;;0.35;0.35;;;30.60;37.60;;;;;;6245451;23;20019;-79
2023/06/09 12:49:44;;;;;;;0.77;0.65;;;29.60;38.60;;;;;;6218708;23;20023;-79
2023/06/09 12:52:10;;;;;;;0.63;0.40;;;29.10;39.90;;;;;;6193992;23;20016;-79
2023/06/09 12:54:37;;;;;;;0.80;0.75;;;28.70;39.10;;;;;;6194225;23;20020;-78
2023/06/09 12:57:03;;;;;;;0.43;0.43;;;28.20;40.80;;;;;;6218856;23;20071;-79
2023/06/09 12:59:29;;;;;;;0.40;0.40;;;27.80;40.70;;;;;;6245894;23;20020;-79
2023/06/09 13:01:55;;;;;;;0.55;0.52;;;27.30;41.90;;;;;;6245772;23;20008;-78
2023/06/09 13:04:21;;;;;;;0.40;0.40;;;27.00;42.30;;;;;;6219199;23;20051;-78
2023/06/09 13:06:48;;;;;;;1.13;0.70;;;26.90;42.40;;;;;;6193375;23;20059;-79
2023/06/09 13:09:14;;;;;;;0.57;0.57;;;26.90;42.10;;;;;;6245649;23;20084;-78
2023/06/09 13:11:40;;;;;;;0.63;0.63;;;27.00;42.90;;;;;;6218061;23;20016;-77
2023/06/09 13:14:26;;;;;;;0.75;0.60;;;27.00;43.30;;;;;;6218778;23;20012;-77
2023/06/09 13:16:53;;;;;;;2.03;1.25;;;27.10;43.40;;;;;;6217757;23;20012;-78
2023/06/09 13:19:19;;;;;;;0.85;0.68;;;27.10;43.70;;;;;;6245623;23;20019;-78
2023/06/09 13:21:45;;;;;;;0.65;0.60;;;27.10;43.80;;;;;;6218258;23;20434;-78
2023/06/09 13:24:11;;;;;;;0.50;0.50;;;27.10;44.40;;;;;;6218821;23;20016;-78
2023/06/09 13:26:37;;;;;;;0.30;0.30;;;27.30;44.50;;;;;;6193302;23;20008;-78